createdAt,value
2022-12-29T00:00:36.090Z,2.81
2022-12-29T00:03:06.851Z,2.73
2022-12-29T00:05:35.776Z,2.24
2022-12-29T00:08:04.356Z,3.10
2022-12-29T00:10:38.619Z,3.42
2022-12-29T00:13:28.212Z,3.31
2022-12-29T00:15:59.798Z,2.43
2022-12-29T00:18:29.730Z,2.02
2022-12-29T00:21:15.800Z,2.31
2022-12-29T00:24:03.478Z,1.70
2022-12-29T00:26:51.472Z,1.54
2022-12-29T00:29:40.462Z,2.03
2022-12-29T00:32:29.967Z,2.16
2022-12-29T00:35:11.075Z,2.31
2022-12-29T00:37:55.596Z,2.55
2022-12-29T00:40:46.597Z,2.22
2022-12-29T00:43:35.178Z,1.69
2022-12-29T00:46:03.870Z,1.73
2022-12-29T00:48:58.285Z,1.47
2022-12-29T00:51:27.023Z,1.79
2022-12-29T00:53:55.506Z,1.72
2022-12-29T00:56:24.088Z,2.12
2022-12-29T00:58:53.966Z,2.29
2022-12-29T01:01:22.545Z,1.78
2022-12-29T01:03:50.777Z,1.73
2022-12-29T01:06:21.605Z,2.21
2022-12-29T01:09:10.747Z,1.97
2022-12-29T01:11:41.100Z,1.96
2022-12-29T01:14:11.079Z,2.29
2022-12-29T01:16:39.732Z,2.62
2022-12-29T01:19:08.331Z,1.65
2022-12-29T01:21:37.524Z,1.93
2022-12-29T01:24:06.494Z,1.94
2022-12-29T01:26:35.701Z,1.38
2022-12-29T01:29:04.217Z,1.78
2022-12-29T01:31:34.215Z,1.61
2022-12-29T01:34:03.226Z,1.50
2022-12-29T01:36:32.268Z,2.15
2022-12-29T01:39:00.708Z,1.83
2022-12-29T01:41:29.533Z,1.82
2022-12-29T01:44:00.373Z,2.61
2022-12-29T01:46:32.574Z,2.28
2022-12-29T01:49:13.276Z,1.91
2022-12-29T01:51:47.059Z,1.13
2022-12-29T01:54:20.079Z,1.34
2022-12-29T01:56:49.498Z,2.01
2022-12-29T01:59:22.079Z,1.41
2022-12-29T02:01:53.661Z,0.91
2022-12-29T02:04:26.202Z,1.19
2022-12-29T02:07:03.294Z,1.86
2022-12-29T02:09:32.543Z,1.09
2022-12-29T02:12:01.987Z,1.04
2022-12-29T02:14:32.310Z,1.29
2022-12-29T02:17:12.536Z,1.03
2022-12-29T02:20:21.824Z,1.94
2022-12-29T02:23:12.343Z,0.96
2022-12-29T02:26:02.826Z,1.93
2022-12-29T02:28:55.298Z,1.47
2022-12-29T02:31:30.332Z,1.03
2022-12-29T02:34:11.444Z,2.00
2022-12-29T02:36:47.530Z,2.67
2022-12-29T02:39:25.944Z,2.74
2022-12-29T02:42:05.531Z,2.24
2022-12-29T02:44:45.267Z,2.56
2022-12-29T02:47:24.561Z,2.65
2022-12-29T02:49:59.963Z,2.32
2022-12-29T02:52:34.417Z,2.32
2022-12-29T02:55:01.964Z,1.98
2022-12-29T02:57:35.090Z,2.05
2022-12-29T03:00:08.924Z,2.49
2022-12-29T03:02:55.644Z,2.06
2022-12-29T03:05:35.363Z,2.00
2022-12-29T03:08:16.936Z,2.27
2022-12-29T03:10:54.748Z,2.22
2022-12-29T03:13:47.838Z,1.96
2022-12-29T03:16:25.370Z,2.09
2022-12-29T03:19:02.666Z,2.21
2022-12-29T03:21:54.326Z,2.12
2022-12-29T03:24:29.791Z,2.21
2022-12-29T03:27:01.641Z,2.09
2022-12-29T03:29:41.094Z,1.87
2022-12-29T03:32:12.034Z,1.41
2022-12-29T03:34:42.819Z,1.08
2022-12-29T03:37:15.277Z,0.58
2022-12-29T03:39:45.371Z,0.55
2022-12-29T03:42:18.506Z,1.01
2022-12-29T03:44:48.257Z,1.00
2022-12-29T03:47:18.149Z,1.10
2022-12-29T03:49:52.452Z,1.46
2022-12-29T03:52:21.928Z,1.24
2022-12-29T03:54:52.818Z,1.02
2022-12-29T03:57:21.186Z,1.02
2022-12-29T03:59:57.539Z,1.05
2022-12-29T04:02:26.095Z,1.10
2022-12-29T04:04:56.758Z,1.23
2022-12-29T04:07:25.737Z,1.41
2022-12-29T04:09:56.055Z,1.01
2022-12-29T04:12:26.844Z,1.03
2022-12-29T04:14:55.353Z,0.96
2022-12-29T04:17:24.367Z,0.82
2022-12-29T04:20:16.848Z,0.84
2022-12-29T04:22:52.314Z,1.48
2022-12-29T04:25:21.084Z,1.05
2022-12-29T04:27:49.905Z,1.31
2022-12-29T04:30:36.736Z,1.53
2022-12-29T04:33:11.553Z,1.66
2022-12-29T04:35:44.659Z,1.59
2022-12-29T04:38:15.197Z,1.23
2022-12-29T04:40:45.484Z,0.81
2022-12-29T04:43:15.967Z,0.88
2022-12-29T04:46:06.815Z,0.64
2022-12-29T04:48:58.764Z,0.81
2022-12-29T04:51:32.352Z,1.00
2022-12-29T04:54:01.348Z,0.79
2022-12-29T04:56:31.572Z,0.94
2022-12-29T04:59:00.085Z,0.99
2022-12-29T05:01:29.270Z,1.18
2022-12-29T05:03:57.645Z,1.17
2022-12-29T05:06:26.228Z,1.35
2022-12-29T05:08:56.015Z,1.24
2022-12-29T05:11:24.471Z,0.84
2022-12-29T05:13:54.890Z,0.84
2022-12-29T05:16:24.219Z,1.16
2022-12-29T05:18:52.746Z,0.81
2022-12-29T05:21:21.884Z,1.05
2022-12-29T05:23:51.259Z,0.68
2022-12-29T05:26:21.485Z,0.87
2022-12-29T05:29:13.347Z,1.24
2022-12-29T05:31:41.944Z,1.77
2022-12-29T05:34:13.021Z,1.15
2022-12-29T05:36:43.126Z,0.68
2022-12-29T05:39:12.929Z,0.32
2022-12-29T05:41:42.547Z,0.32
2022-12-29T05:44:29.746Z,0.19
2022-12-29T05:47:13.970Z,0.45
2022-12-29T05:50:18.545Z,0.13
2022-12-29T05:53:10.377Z,0.88
2022-12-29T05:55:46.625Z,0.72
2022-12-29T05:58:19.059Z,0.58
2022-12-29T06:00:49.671Z,-0.28
2022-12-29T06:03:18.595Z,-0.12
2022-12-29T06:05:47.852Z,0.34
2022-12-29T06:08:17.913Z,0.74
2022-12-29T06:10:46.306Z,1.03
2022-12-29T06:13:15.507Z,0.32
2022-12-29T06:15:47.817Z,0.64
2022-12-29T06:18:19.802Z,1.04
2022-12-29T06:20:49.708Z,1.02
2022-12-29T06:23:20.790Z,1.45
2022-12-29T06:26:07.050Z,0.85
2022-12-29T06:28:35.693Z,1.34
2022-12-29T06:31:10.884Z,1.30
2022-12-29T06:33:39.697Z,1.33
2022-12-29T06:36:11.966Z,1.54
2022-12-29T06:38:44.503Z,1.30
2022-12-29T06:41:13.160Z,1.43
2022-12-29T06:44:16.876Z,1.41
2022-12-29T06:47:03.855Z,1.30
2022-12-29T06:49:52.999Z,1.26
2022-12-29T06:52:36.821Z,1.52
2022-12-29T06:55:06.019Z,1.26
2022-12-29T06:57:34.585Z,1.49
2022-12-29T07:00:03.290Z,1.39
2022-12-29T07:02:33.961Z,1.31
2022-12-29T07:05:19.943Z,1.24
2022-12-29T07:07:50.222Z,1.17
2022-12-29T07:10:19.136Z,1.59
2022-12-29T07:12:47.846Z,1.71
2022-12-29T07:15:28.604Z,1.87
2022-12-29T07:18:02.325Z,1.62
2022-12-29T07:20:33.464Z,1.61
2022-12-29T07:23:05.166Z,1.28
2022-12-29T07:25:43.131Z,0.53
2022-12-29T07:28:12.192Z,0.55
2022-12-29T07:30:41.192Z,0.49
2022-12-29T07:33:14.958Z,0.93
2022-12-29T07:35:44.512Z,0.69
2022-12-29T07:38:16.069Z,0.54
2022-12-29T07:40:45.366Z,0.77
2022-12-29T07:43:14.001Z,1.00
2022-12-29T07:45:50.815Z,1.54
2022-12-29T07:48:37.645Z,1.17
2022-12-29T07:51:16.643Z,0.98
2022-12-29T07:53:44.980Z,1.59
2022-12-29T07:56:13.454Z,0.78
2022-12-29T07:58:42.863Z,1.04
2022-12-29T08:01:16.777Z,0.59
2022-12-29T08:03:55.433Z,0.98
2022-12-29T08:06:25.870Z,1.08
2022-12-29T08:08:57.461Z,0.93
2022-12-29T08:11:26.683Z,1.51
2022-12-29T08:13:55.210Z,1.46
2022-12-29T08:16:24.026Z,1.54
2022-12-29T08:18:54.173Z,0.35
2022-12-29T08:21:22.840Z,0.97
2022-12-29T08:23:53.804Z,1.12
2022-12-29T08:26:22.332Z,1.35
2022-12-29T08:28:50.806Z,1.60
2022-12-29T08:31:19.778Z,1.18
2022-12-29T08:33:48.285Z,1.10
2022-12-29T08:36:18.220Z,1.60
2022-12-29T08:38:46.940Z,1.34
2022-12-29T08:41:16.051Z,1.48
2022-12-29T08:43:48.467Z,1.54
2022-12-29T08:46:20.701Z,1.47
2022-12-29T08:48:52.745Z,0.39
2022-12-29T08:51:24.639Z,0.66
2022-12-29T08:53:59.063Z,0.60
2022-12-29T08:56:28.483Z,1.38
2022-12-29T08:58:59.217Z,1.10
2022-12-29T09:01:34.859Z,1.30
2022-12-29T09:04:17.037Z,1.38
2022-12-29T09:06:48.410Z,1.50
2022-12-29T09:09:18.272Z,1.53
2022-12-29T09:11:47.654Z,1.34
2022-12-29T09:14:17.436Z,1.24
2022-12-29T09:17:04.038Z,1.24
2022-12-29T09:19:43.834Z,1.29
2022-12-29T09:22:19.339Z,2.01
2022-12-29T09:24:56.032Z,2.09
2022-12-29T09:27:24.866Z,1.62
2022-12-29T09:29:53.126Z,1.82
2022-12-29T09:32:23.554Z,1.73
2022-12-29T09:34:52.902Z,2.13
2022-12-29T09:37:22.666Z,2.50
2022-12-29T09:40:00.277Z,1.55
2022-12-29T09:42:34.939Z,1.75
2022-12-29T09:45:16.218Z,1.70
2022-12-29T09:47:47.568Z,1.86
2022-12-29T09:50:27.948Z,1.59
2022-12-29T09:53:08.453Z,1.81
2022-12-29T09:55:41.001Z,2.13
2022-12-29T09:58:17.442Z,2.01
2022-12-29T10:00:55.605Z,2.57
2022-12-29T10:03:40.372Z,2.16
2022-12-29T10:06:16.716Z,1.66
2022-12-29T10:08:55.524Z,1.37
2022-12-29T10:11:40.059Z,1.86
2022-12-29T10:14:28.805Z,2.01
2022-12-29T10:17:09.875Z,1.32
2022-12-29T10:19:59.848Z,1.57
2022-12-29T10:22:45.186Z,1.71
2022-12-29T10:25:20.875Z,2.20
2022-12-29T10:27:52.143Z,1.97
2022-12-29T10:30:29.378Z,2.07
2022-12-29T10:33:15.733Z,1.78
2022-12-29T10:35:45.083Z,1.96
2022-12-29T10:38:23.554Z,2.14
2022-12-29T10:41:00.916Z,1.83
2022-12-29T10:43:34.765Z,1.42
2022-12-29T10:46:09.428Z,1.10
2022-12-29T10:48:39.332Z,0.80
2022-12-29T10:51:11.252Z,0.71
2022-12-29T10:53:47.513Z,-0.17
2022-12-29T10:56:30.384Z,0.25
2022-12-29T10:59:04.265Z,0.29
2022-12-29T11:01:42.423Z,0.76
2022-12-29T11:04:29.813Z,0.41
2022-12-29T11:07:00.783Z,0.39
2022-12-29T11:09:41.970Z,0.42
2022-12-29T11:12:27.164Z,0.33
2022-12-29T11:15:15.664Z,0.16
2022-12-29T11:17:50.166Z,0.45
2022-12-29T11:20:33.695Z,0.06
2022-12-29T11:23:27.011Z,0.38
2022-12-29T11:26:20.037Z,0.80
2022-12-29T11:29:19.948Z,0.65
2022-12-29T11:31:53.851Z,0.55
2022-12-29T11:34:24.797Z,0.47
2022-12-29T11:36:56.245Z,0.51
2022-12-29T11:39:33.475Z,0.87
2022-12-29T11:42:05.154Z,0.43
2022-12-29T11:44:39.921Z,0.56
2022-12-29T11:47:14.907Z,0.68
2022-12-29T11:49:43.734Z,0.47
2022-12-29T11:52:12.540Z,0.36
2022-12-29T11:54:41.458Z,0.32
2022-12-29T11:57:19.672Z,0.08
2022-12-29T11:59:56.577Z,-0.30
2022-12-29T12:02:42.571Z,0.34
2022-12-29T12:05:28.313Z,0.37
2022-12-29T12:08:05.418Z,-0.05
2022-12-29T12:10:39.872Z,0.21
2022-12-29T12:13:22.325Z,0.18
2022-12-29T12:15:58.108Z,0.21
2022-12-29T12:18:36.413Z,0.48
2022-12-29T12:21:11.543Z,0.14
2022-12-29T12:23:50.794Z,0.10
2022-12-29T12:26:23.350Z,0.15
2022-12-29T12:28:57.172Z,-0.17
2022-12-29T12:31:43.472Z,0.30
2022-12-29T12:34:20.441Z,0.05
2022-12-29T12:37:11.288Z,-0.27
2022-12-29T12:39:49.835Z,-0.25
2022-12-29T12:42:32.421Z,0.07
2022-12-29T12:45:31.560Z,0.54
2022-12-29T12:48:17.168Z,0.63
2022-12-29T12:50:58.188Z,-0.14
2022-12-29T12:53:50.440Z,-0.21
2022-12-29T12:56:35.329Z,-0.42
2022-12-29T12:59:12.254Z,-0.11
2022-12-29T13:01:49.035Z,0.22
2022-12-29T13:04:54.798Z,0.16
2022-12-29T13:07:36.021Z,0.06
2022-12-29T13:10:24.860Z,0.16
2022-12-29T13:13:05.670Z,-0.07
2022-12-29T13:15:51.758Z,-0.13
2022-12-29T13:18:28.118Z,-0.34
2022-12-29T13:21:03.965Z,-0.71
2022-12-29T13:23:43.814Z,-0.62
2022-12-29T13:26:21.682Z,-0.64
2022-12-29T13:28:58.350Z,-0.38
2022-12-29T13:31:36.029Z,-0.44
2022-12-29T13:34:14.916Z,-0.18
2022-12-29T13:36:49.748Z,0.25
2022-12-29T13:39:25.686Z,0.10
2022-12-29T13:41:56.329Z,0.09
2022-12-29T13:44:31.876Z,0.18
2022-12-29T13:47:07.380Z,0.51
2022-12-29T13:49:36.989Z,0.53
2022-12-29T13:52:14.433Z,0.30
2022-12-29T13:54:51.764Z,0.27
2022-12-29T13:57:30.948Z,0.50
2022-12-29T14:00:05.828Z,0.50
2022-12-29T14:03:03.106Z,0.39
2022-12-29T14:05:37.739Z,0.44
2022-12-29T14:08:28.386Z,0.49
2022-12-29T14:11:10.051Z,0.29
2022-12-29T14:13:42.485Z,0.53
2022-12-29T14:16:25.734Z,0.68
2022-12-29T14:18:55.649Z,0.59
2022-12-29T14:21:31.091Z,0.59
2022-12-29T14:24:41.898Z,0.84
2022-12-29T14:27:46.044Z,0.98
2022-12-29T14:31:03.319Z,1.10
2022-12-29T14:33:33.916Z,1.15
2022-12-29T14:36:25.334Z,1.10
2022-12-29T14:38:54.159Z,1.25
2022-12-29T14:41:37.343Z,1.36
2022-12-29T14:44:20.837Z,1.16
2022-12-29T14:46:57.318Z,1.14
2022-12-29T14:49:37.739Z,0.92
2022-12-29T14:52:09.933Z,0.61
2022-12-29T14:54:51.625Z,0.44
2022-12-29T14:57:48.118Z,0.76
2022-12-29T15:00:21.027Z,0.70
2022-12-29T15:02:57.342Z,0.22
2022-12-29T15:05:50.601Z,0.48
2022-12-29T15:08:23.815Z,0.25
2022-12-29T15:10:58.630Z,0.23
2022-12-29T15:13:47.636Z,0.13
2022-12-29T15:16:36.366Z,0.10
2022-12-29T15:19:27.889Z,0.62
2022-12-29T15:21:59.643Z,0.43
2022-12-29T15:24:28.373Z,0.59
2022-12-29T15:26:59.205Z,0.75
2022-12-29T15:29:38.253Z,0.84
2022-12-29T15:32:24.182Z,0.88
2022-12-29T15:34:59.432Z,1.07
2022-12-29T15:37:37.742Z,1.05
2022-12-29T15:40:08.828Z,0.93
2022-12-29T15:43:03.688Z,0.89
2022-12-29T15:45:37.964Z,0.72
2022-12-29T15:48:10.409Z,0.69
2022-12-29T15:50:39.996Z,0.20
2022-12-29T15:53:14.799Z,0.46
2022-12-29T15:55:44.709Z,0.39
2022-12-29T15:58:26.445Z,0.29
2022-12-29T16:00:59.145Z,0.66
2022-12-29T16:03:30.268Z,0.59
2022-12-29T16:06:09.168Z,0.96
2022-12-29T16:08:41.312Z,1.01
2022-12-29T16:11:25.483Z,1.28
2022-12-29T16:13:56.133Z,1.36
2022-12-29T16:16:31.359Z,1.46
2022-12-29T16:19:01.007Z,1.22
2022-12-29T16:21:34.920Z,1.27
2022-12-29T16:24:07.828Z,1.17
2022-12-29T16:26:36.597Z,1.31
2022-12-29T16:29:07.687Z,1.75
2022-12-29T16:31:39.331Z,1.45
2022-12-29T16:34:16.140Z,1.59
2022-12-29T16:36:56.498Z,1.59
2022-12-29T16:39:35.200Z,1.54
2022-12-29T16:42:51.696Z,1.55
2022-12-29T16:46:09.342Z,1.23
2022-12-29T16:48:50.268Z,1.45
2022-12-29T16:51:32.062Z,1.33
2022-12-29T16:54:02.429Z,1.28
2022-12-29T16:56:34.676Z,1.37
2022-12-29T16:59:06.673Z,1.43
2022-12-29T17:01:41.021Z,1.48
2022-12-29T17:04:14.314Z,1.05
2022-12-29T17:06:52.692Z,1.18
2022-12-29T17:09:28.931Z,1.41
2022-12-29T17:12:08.732Z,1.46
2022-12-29T17:14:46.309Z,1.49
2022-12-29T17:17:21.635Z,1.41
2022-12-29T17:20:30.184Z,1.33
2022-12-29T17:22:50.106Z,1.19
2022-12-29T17:25:21.544Z,0.99
2022-12-29T17:27:56.471Z,0.85
2022-12-29T17:30:33.652Z,1.19
2022-12-29T17:33:18.641Z,1.34
2022-12-29T17:35:54.849Z,1.24
2022-12-29T17:38:33.671Z,1.43
2022-12-29T17:41:02.635Z,1.45
2022-12-29T17:43:37.018Z,1.29
2022-12-29T17:46:08.682Z,1.34
2022-12-29T17:48:37.757Z,1.33
2022-12-29T17:51:08.203Z,1.60
2022-12-29T17:53:54.177Z,1.51
2022-12-29T17:56:29.548Z,1.87
2022-12-29T17:58:58.706Z,1.25
2022-12-29T18:01:35.867Z,1.48
2022-12-29T18:04:07.381Z,1.43
2022-12-29T18:06:37.700Z,1.42
2022-12-29T18:09:10.601Z,1.55
2022-12-29T18:11:40.614Z,1.49
2022-12-29T18:14:14.576Z,1.17
2022-12-29T18:16:43.219Z,1.41
2022-12-29T18:19:12.104Z,1.44
2022-12-29T18:21:45.907Z,1.62
2022-12-29T18:24:16.345Z,1.56
2022-12-29T18:26:44.952Z,1.69
2022-12-29T18:29:14.592Z,1.87
2022-12-29T18:31:43.586Z,1.56
2022-12-29T18:34:16.697Z,1.54
2022-12-29T18:36:51.957Z,1.47
2022-12-29T18:39:24.130Z,1.71
2022-12-29T18:41:55.727Z,1.53
2022-12-29T18:44:24.608Z,1.78
2022-12-29T18:46:55.145Z,1.21
2022-12-29T18:49:24.092Z,1.36
2022-12-29T18:51:54.526Z,1.72
2022-12-29T18:54:33.343Z,1.51
2022-12-29T18:57:04.413Z,1.66
2022-12-29T18:59:42.032Z,1.89
2022-12-29T19:02:19.170Z,1.77
2022-12-29T19:04:53.223Z,1.76
2022-12-29T19:07:26.484Z,1.91
2022-12-29T19:10:00.104Z,1.66
2022-12-29T19:12:31.228Z,1.73
2022-12-29T19:15:31.428Z,1.68
2022-12-29T19:18:41.859Z,1.11
2022-12-29T19:20:53.496Z,1.46
2022-12-29T19:23:25.456Z,1.66
2022-12-29T19:25:58.166Z,1.57
2022-12-29T19:28:29.284Z,1.56
2022-12-29T19:31:15.532Z,1.60
2022-12-29T19:33:46.667Z,1.32
2022-12-29T19:36:19.903Z,1.88
2022-12-29T19:38:52.568Z,1.70
2022-12-29T19:41:21.425Z,1.94
2022-12-29T19:43:50.598Z,1.80
2022-12-29T19:46:21.010Z,1.46
2022-12-29T19:48:51.974Z,1.73
2022-12-29T19:51:20.853Z,1.88
2022-12-29T19:54:01.361Z,1.71
2022-12-29T19:56:30.739Z,1.78
2022-12-29T19:59:48.731Z,1.91
2022-12-29T20:02:24.331Z,1.62
2022-12-29T20:05:12.004Z,1.81
2022-12-29T20:07:41.235Z,1.44
2022-12-29T20:10:12.104Z,1.60
2022-12-29T20:12:50.096Z,1.48
2022-12-29T20:15:22.842Z,1.84
2022-12-29T20:18:14.527Z,1.43
2022-12-29T20:21:41.877Z,1.19
2022-12-29T20:24:10.934Z,1.77
2022-12-29T20:26:41.251Z,1.82
2022-12-29T20:29:36.679Z,1.54
2022-12-29T20:32:25.616Z,1.15
2022-12-29T20:35:02.703Z,1.71
2022-12-29T20:37:32.476Z,1.93
2022-12-29T20:40:01.087Z,2.20
2022-12-29T20:42:52.337Z,2.11
2022-12-29T20:45:27.809Z,1.49
2022-12-29T20:47:57.977Z,1.57
2022-12-29T20:50:26.693Z,1.74
2022-12-29T20:53:04.147Z,1.49
2022-12-29T20:55:33.042Z,1.71
2022-12-29T21:01:00.472Z,1.35
2022-12-29T21:03:34.963Z,1.55
2022-12-29T21:06:07.783Z,1.61
2022-12-29T21:08:37.429Z,1.73
2022-12-29T21:11:09.044Z,1.71
2022-12-29T21:13:39.147Z,1.87
2022-12-29T21:16:10.317Z,1.40
2022-12-29T21:18:38.907Z,1.54
2022-12-29T21:21:22.541Z,1.50
2022-12-29T21:24:05.688Z,1.57
2022-12-29T21:26:41.259Z,1.67
2022-12-29T21:29:14.561Z,1.43
2022-12-29T21:32:09.441Z,1.21
2022-12-29T21:34:38.164Z,1.36
2022-12-29T21:37:06.332Z,2.24
2022-12-29T21:39:36.539Z,2.10
2022-12-29T21:42:05.352Z,2.05
2022-12-29T21:44:53.772Z,1.78
2022-12-29T21:47:48.488Z,1.77
2022-12-29T21:50:17.516Z,1.79
2022-12-29T21:52:46.194Z,1.60
2022-12-29T21:55:15.820Z,1.80
2022-12-29T21:58:09.957Z,1.51
2022-12-29T22:00:57.279Z,1.16
2022-12-29T22:03:43.432Z,1.16
2022-12-29T22:06:30.132Z,1.72
2022-12-29T22:09:17.531Z,1.65
2022-12-29T22:12:03.628Z,1.78
2022-12-29T22:14:32.187Z,1.41
2022-12-29T22:17:02.106Z,1.24
2022-12-29T22:19:30.599Z,1.38
2022-12-29T22:21:59.148Z,1.54
2022-12-29T22:24:30.265Z,1.59
2022-12-29T22:27:00.502Z,1.52
2022-12-29T22:29:29.066Z,1.68
2022-12-29T22:31:57.501Z,1.83
2022-12-29T22:34:31.615Z,1.84
2022-12-29T22:37:03.316Z,1.93
2022-12-29T22:39:32.204Z,1.73
2022-12-29T22:42:00.927Z,2.02
2022-12-29T22:44:29.516Z,1.60
2022-12-29T22:46:57.890Z,1.92
2022-12-29T22:49:30.236Z,1.95
2022-12-29T22:51:58.987Z,2.09
2022-12-29T22:54:27.141Z,2.27
2022-12-29T22:56:58.640Z,2.11
2022-12-29T22:59:27.381Z,2.21
2022-12-29T23:01:55.651Z,2.27
2022-12-29T23:05:01.507Z,2.10
2022-12-29T23:07:16.543Z,1.50
2022-12-29T23:09:45.108Z,1.36
2022-12-29T23:12:13.604Z,1.49
2022-12-29T23:14:41.966Z,0.90
2022-12-29T23:17:10.446Z,0.98
2022-12-29T23:19:38.882Z,1.19
2022-12-29T23:22:07.381Z,1.12
2022-12-29T23:24:37.237Z,1.66
2022-12-29T23:27:05.814Z,1.55
2022-12-29T23:29:34.391Z,1.58
2022-12-29T23:32:02.577Z,1.85
2022-12-29T23:34:31.040Z,1.96
2022-12-29T23:36:59.499Z,1.95
2022-12-29T23:39:29.253Z,1.76
2022-12-29T23:42:00.161Z,1.56
2022-12-29T23:44:28.792Z,1.33
2022-12-29T23:46:57.054Z,2.01
2022-12-29T23:49:25.510Z,1.79
2022-12-29T23:51:54.107Z,1.87
2022-12-29T23:54:22.637Z,1.65
2022-12-29T23:56:51.097Z,1.89
2022-12-29T23:59:21.091Z,1.61
